sensor_id;sensor_type;location;lat;lon;timestamp;P1;durP1;ratioP1;P2;durP2;ratioP2
70363;SDS011;57785;43.898;1.886;2022-07-29T06:03:02;5.88;;;2.08;;
70363;SDS011;57785;43.898;1.886;2022-07-29T06:05:28;7.45;;;2.10;;
70363;SDS011;57785;43.898;1.886;2022-07-29T06:07:54;5.07;;;1.92;;
70363;SDS011;57785;43.898;1.886;2022-07-29T06:10:20;3.80;;;2.08;;
70363;SDS011;57785;43.898;1.886;2022-07-29T06:12:46;4.78;;;2.03;;
70363;SDS011;57785;43.898;1.886;2022-07-29T06:15:13;5.88;;;2.13;;
70363;SDS011;57785;43.898;1.886;2022-07-29T06:17:39;5.82;;;1.85;;
70363;SDS011;57785;43.898;1.886;2022-07-29T06:20:05;3.47;;;1.80;;
70363;SDS011;57785;43.898;1.886;2022-07-29T06:22:31;3.83;;;1.90;;
70363;SDS011;57785;43.898;1.886;2022-07-29T06:24:57;6.65;;;1.90;;
70363;SDS011;57785;43.898;1.886;2022-07-29T06:27:23;5.28;;;1.75;;
70363;SDS011;57785;43.898;1.886;2022-07-29T06:29:49;2.88;;;1.75;;
70363;SDS011;57785;43.898;1.886;2022-07-29T06:32:15;7.43;;;2.13;;
70363;SDS011;57785;43.898;1.886;2022-07-29T06:34:41;7.05;;;2.20;;
70363;SDS011;57785;43.898;1.886;2022-07-29T06:37:07;6.63;;;2.83;;
70363;SDS011;57785;43.898;1.886;2022-07-29T06:39:34;6.43;;;2.40;;
70363;SDS011;57785;43.898;1.886;2022-07-29T06:42:01;6.65;;;2.13;;
70363;SDS011;57785;43.898;1.886;2022-07-29T06:44:27;3.65;;;1.80;;
70363;SDS011;57785;43.898;1.886;2022-07-29T06:46:53;5.35;;;1.65;;
70363;SDS011;57785;43.898;1.886;2022-07-29T06:49:19;5.18;;;1.88;;
70363;SDS011;57785;43.898;1.886;2022-07-29T06:51:45;3.45;;;1.80;;
70363;SDS011;57785;43.898;1.886;2022-07-29T06:54:11;4.30;;;1.85;;
70363;SDS011;57785;43.898;1.886;2022-07-29T06:56:38;4.70;;;1.98;;
70363;SDS011;57785;43.898;1.886;2022-07-29T06:59:07;3.83;;;1.80;;
70363;SDS011;57785;43.898;1.886;2022-07-29T07:01:33;10.75;;;2.40;;
70363;SDS011;57785;43.898;1.886;2022-07-29T07:03:59;9.98;;;2.38;;
70363;SDS011;57785;43.898;1.886;2022-07-29T07:06:25;6.45;;;2.10;;
70363;SDS011;57785;43.898;1.886;2022-07-29T07:08:51;7.63;;;1.70;;
70363;SDS011;57785;43.898;1.886;2022-07-29T07:11:17;6.97;;;2.05;;
70363;SDS011;57785;43.898;1.886;2022-07-29T07:13:43;7.65;;;2.22;;
70363;SDS011;57785;43.898;1.886;2022-07-29T07:16:09;5.28;;;2.17;;
70363;SDS011;57785;43.898;1.886;2022-07-29T07:18:35;6.13;;;2.13;;
70363;SDS011;57785;43.898;1.886;2022-07-29T07:21:01;3.80;;;1.77;;
70363;SDS011;57785;43.898;1.886;2022-07-29T07:23:29;5.45;;;2.00;;
70363;SDS011;57785;43.898;1.886;2022-07-29T07:25:55;4.68;;;2.10;;
70363;SDS011;57785;43.898;1.886;2022-07-29T07:28:21;4.85;;;2.00;;
70363;SDS011;57785;43.898;1.886;2022-07-29T07:30:48;3.40;;;1.90;;
70363;SDS011;57785;43.898;1.886;2022-07-29T07:33:14;5.72;;;1.90;;
70363;SDS011;57785;43.898;1.886;2022-07-29T07:35:40;3.85;;;1.92;;
70363;SDS011;57785;43.898;1.886;2022-07-29T07:38:07;5.88;;;1.90;;
70363;SDS011;57785;43.898;1.886;2022-07-29T07:40:33;6.95;;;2.08;;
70363;SDS011;57785;43.898;1.886;2022-07-29T07:42:59;17.90;;;2.55;;
70363;SDS011;57785;43.898;1.886;2022-07-29T07:45:25;12.60;;;2.10;;
70363;SDS011;57785;43.898;1.886;2022-07-29T16:48:27;4.20;;;1.98;;
70363;SDS011;57785;43.898;1.886;2022-07-29T16:50:53;3.42;;;2.10;;
70363;SDS011;57785;43.898;1.886;2022-07-29T16:53:20;6.43;;;2.13;;
70363;SDS011;57785;43.898;1.886;2022-07-29T16:55:46;4.13;;;1.83;;
70363;SDS011;57785;43.898;1.886;2022-07-29T16:58:12;4.10;;;1.98;;
70363;SDS011;57785;43.898;1.886;2022-07-29T17:00:38;4.35;;;2.00;;
70363;SDS011;57785;43.898;1.886;2022-07-29T17:03:04;4.60;;;1.95;;
70363;SDS011;57785;43.898;1.886;2022-07-29T17:05:30;2.60;;;2.10;;
70363;SDS011;57785;43.898;1.886;2022-07-29T17:07:57;5.00;;;2.05;;
70363;SDS011;57785;43.898;1.886;2022-07-29T17:10:23;4.03;;;2.00;;
70363;SDS011;57785;43.898;1.886;2022-07-29T17:12:49;1.90;;;1.67;;
70363;SDS011;57785;43.898;1.886;2022-07-29T17:15:16;3.95;;;1.70;;
70363;SDS011;57785;43.898;1.886;2022-07-29T17:17:42;3.22;;;1.90;;
70363;SDS011;57785;43.898;1.886;2022-07-29T17:20:09;3.00;;;1.70;;
70363;SDS011;57785;43.898;1.886;2022-07-29T17:22:36;7.50;;;1.83;;
70363;SDS011;57785;43.898;1.886;2022-07-29T17:25:02;3.65;;;1.60;;
70363;SDS011;57785;43.898;1.886;2022-07-29T17:27:29;2.40;;;1.65;;
70363;SDS011;57785;43.898;1.886;2022-07-29T17:29:55;3.60;;;1.70;;
70363;SDS011;57785;43.898;1.886;2022-07-29T17:32:22;7.63;;;2.20;;
70363;SDS011;57785;43.898;1.886;2022-07-29T17:34:48;3.58;;;1.90;;
70363;SDS011;57785;43.898;1.886;2022-07-29T17:37:14;2.97;;;1.45;;
70363;SDS011;57785;43.898;1.886;2022-07-29T17:39:41;4.32;;;1.70;;
70363;SDS011;57785;43.898;1.886;2022-07-29T17:42:07;4.78;;;1.92;;
70363;SDS011;57785;43.898;1.886;2022-07-29T17:44:34;3.58;;;1.70;;
70363;SDS011;57785;43.898;1.886;2022-07-29T17:47:00;4.93;;;1.73;;
70363;SDS011;57785;43.898;1.886;2022-07-29T17:49:26;3.75;;;1.75;;
70363;SDS011;57785;43.898;1.886;2022-07-29T17:51:52;3.13;;;1.70;;
70363;SDS011;57785;43.898;1.886;2022-07-29T17:54:18;1.77;;;1.55;;
70363;SDS011;57785;43.898;1.886;2022-07-29T17:56:45;3.25;;;1.60;;
70363;SDS011;57785;43.898;1.886;2022-07-29T17:59:11;3.55;;;1.90;;
70363;SDS011;57785;43.898;1.886;2022-07-29T18:01:38;3.13;;;1.70;;
70363;SDS011;57785;43.898;1.886;2022-07-29T18:04:05;2.25;;;1.60;;
70363;SDS011;57785;43.898;1.886;2022-07-29T18:06:31;4.78;;;1.75;;
70363;SDS011;57785;43.898;1.886;2022-07-29T18:08:57;4.03;;;1.52;;
70363;SDS011;57785;43.898;1.886;2022-07-29T18:11:23;4.43;;;1.55;;
70363;SDS011;57785;43.898;1.886;2022-07-29T18:13:50;3.25;;;1.50;;
70363;SDS011;57785;43.898;1.886;2022-07-29T18:16:16;3.47;;;1.73;;
70363;SDS011;57785;43.898;1.886;2022-07-29T18:18:42;4.53;;;1.65;;
70363;SDS011;57785;43.898;1.886;2022-07-29T18:21:09;4.13;;;1.70;;
70363;SDS011;57785;43.898;1.886;2022-07-29T18:23:35;2.05;;;1.40;;
70363;SDS011;57785;43.898;1.886;2022-07-29T18:26:01;3.17;;;1.50;;
70363;SDS011;57785;43.898;1.886;2022-07-29T18:28:27;1.38;;;1.25;;
70363;SDS011;57785;43.898;1.886;2022-07-29T18:30:53;3.92;;;1.50;;
70363;SDS011;57785;43.898;1.886;2022-07-29T18:33:20;2.67;;;1.30;;
70363;SDS011;57785;43.898;1.886;2022-07-29T18:35:47;3.53;;;1.58;;
70363;SDS011;57785;43.898;1.886;2022-07-29T18:38:13;3.83;;;1.50;;
70363;SDS011;57785;43.898;1.886;2022-07-29T18:40:39;5.78;;;1.80;;
70363;SDS011;57785;43.898;1.886;2022-07-29T18:43:09;1.67;;;1.40;;
70363;SDS011;57785;43.898;1.886;2022-07-29T18:45:36;1.63;;;1.20;;
70363;SDS011;57785;43.898;1.886;2022-07-29T18:48:03;4.50;;;1.60;;
70363;SDS011;57785;43.898;1.886;2022-07-29T18:50:30;3.60;;;1.63;;
70363;SDS011;57785;43.898;1.886;2022-07-29T18:52:56;2.15;;;1.50;;
70363;SDS011;57785;43.898;1.886;2022-07-29T18:55:25;2.83;;;1.50;;
70363;SDS011;57785;43.898;1.886;2022-07-29T18:57:51;3.78;;;1.63;;
70363;SDS011;57785;43.898;1.886;2022-07-29T19:00:17;2.75;;;1.52;;
70363;SDS011;57785;43.898;1.886;2022-07-29T19:02:43;2.90;;;1.48;;
70363;SDS011;57785;43.898;1.886;2022-07-29T19:05:09;2.33;;;1.60;;
70363;SDS011;57785;43.898;1.886;2022-07-29T19:07:35;3.97;;;1.58;;
70363;SDS011;57785;43.898;1.886;2022-07-29T19:10:02;2.88;;;1.40;;
70363;SDS011;57785;43.898;1.886;2022-07-29T19:12:28;2.67;;;1.40;;
70363;SDS011;57785;43.898;1.886;2022-07-29T19:14:54;4.07;;;1.48;;
70363;SDS011;57785;43.898;1.886;2022-07-29T19:17:20;2.78;;;1.50;;
70363;SDS011;57785;43.898;1.886;2022-07-29T19:19:47;5.18;;;1.50;;
70363;SDS011;57785;43.898;1.886;2022-07-29T19:22:17;3.47;;;1.50;;
70363;SDS011;57785;43.898;1.886;2022-07-29T19:24:43;3.58;;;1.60;;
70363;SDS011;57785;43.898;1.886;2022-07-29T19:27:09;2.13;;;1.48;;
70363;SDS011;57785;43.898;1.886;2022-07-29T19:29:36;4.35;;;1.85;;
70363;SDS011;57785;43.898;1.886;2022-07-29T19:32:02;7.20;;;1.75;;
70363;SDS011;57785;43.898;1.886;2022-07-29T19:34:28;2.30;;;1.33;;
70363;SDS011;57785;43.898;1.886;2022-07-29T19:36:54;4.10;;;1.60;;
70363;SDS011;57785;43.898;1.886;2022-07-29T19:39:20;3.42;;;1.40;;
70363;SDS011;57785;43.898;1.886;2022-07-29T19:41:46;3.08;;;1.60;;
70363;SDS011;57785;43.898;1.886;2022-07-29T19:44:12;4.90;;;1.50;;
70363;SDS011;57785;43.898;1.886;2022-07-29T19:46:39;4.75;;;1.50;;
70363;SDS011;57785;43.898;1.886;2022-07-29T19:49:05;3.08;;;1.60;;
70363;SDS011;57785;43.898;1.886;2022-07-29T19:51:32;4.88;;;1.75;;
70363;SDS011;57785;43.898;1.886;2022-07-29T19:53:58;2.58;;;1.40;;
70363;SDS011;57785;43.898;1.886;2022-07-29T19:56:24;4.35;;;1.75;;
70363;SDS011;57785;43.898;1.886;2022-07-29T19:58:51;3.42;;;1.40;;
70363;SDS011;57785;43.898;1.886;2022-07-29T20:01:17;4.20;;;1.40;;
70363;SDS011;57785;43.898;1.886;2022-07-29T20:03:43;6.90;;;1.98;;
70363;SDS011;57785;43.898;1.886;2022-07-29T20:06:10;4.97;;;1.70;;
70363;SDS011;57785;43.898;1.886;2022-07-29T20:08:37;4.22;;;1.38;;
70363;SDS011;57785;43.898;1.886;2022-07-29T20:11:03;5.50;;;1.50;;
70363;SDS011;57785;43.898;1.886;2022-07-29T20:13:30;4.32;;;1.30;;
70363;SDS011;57785;43.898;1.886;2022-07-29T20:15:57;3.50;;;1.30;;
70363;SDS011;57785;43.898;1.886;2022-07-29T20:18:24;3.65;;;1.52;;
70363;SDS011;57785;43.898;1.886;2022-07-29T20:20:50;3.50;;;1.60;;
70363;SDS011;57785;43.898;1.886;2022-07-29T20:23:18;5.32;;;1.70;;
70363;SDS011;57785;43.898;1.886;2022-07-29T20:25:46;3.15;;;1.60;;
70363;SDS011;57785;43.898;1.886;2022-07-29T20:28:12;3.83;;;1.50;;
70363;SDS011;57785;43.898;1.886;2022-07-29T20:30:38;3.95;;;1.60;;
70363;SDS011;57785;43.898;1.886;2022-07-29T20:33:05;4.03;;;1.80;;
70363;SDS011;57785;43.898;1.886;2022-07-29T20:35:32;4.22;;;1.70;;
70363;SDS011;57785;43.898;1.886;2022-07-29T20:37:58;2.78;;;1.70;;
70363;SDS011;57785;43.898;1.886;2022-07-29T20:40:25;2.55;;;1.70;;
70363;SDS011;57785;43.898;1.886;2022-07-29T20:42:52;5.35;;;1.70;;
70363;SDS011;57785;43.898;1.886;2022-07-29T20:45:18;3.47;;;1.85;;
70363;SDS011;57785;43.898;1.886;2022-07-29T20:47:44;4.78;;;1.95;;
70363;SDS011;57785;43.898;1.886;2022-07-29T20:50:10;5.28;;;1.88;;
70363;SDS011;57785;43.898;1.886;2022-07-29T20:52:36;2.72;;;1.80;;
70363;SDS011;57785;43.898;1.886;2022-07-29T20:55:06;3.17;;;1.90;;
70363;SDS011;57785;43.898;1.886;2022-07-29T20:57:32;3.65;;;1.90;;
70363;SDS011;57785;43.898;1.886;2022-07-29T20:59:58;4.53;;;1.80;;
70363;SDS011;57785;43.898;1.886;2022-07-29T21:02:24;2.92;;;1.80;;
70363;SDS011;57785;43.898;1.886;2022-07-29T21:04:50;4.40;;;2.15;;
70363;SDS011;57785;43.898;1.886;2022-07-29T21:07:17;4.80;;;2.03;;
70363;SDS011;57785;43.898;1.886;2022-07-29T21:09:43;6.60;;;2.08;;
70363;SDS011;57785;43.898;1.886;2022-07-29T21:12:09;4.45;;;1.80;;
70363;SDS011;57785;43.898;1.886;2022-07-29T21:14:36;7.88;;;2.03;;
70363;SDS011;57785;43.898;1.886;2022-07-29T21:17:02;6.30;;;1.88;;
70363;SDS011;57785;43.898;1.886;2022-07-29T21:19:30;2.95;;;1.85;;
70363;SDS011;57785;43.898;1.886;2022-07-29T21:21:56;4.43;;;2.00;;
70363;SDS011;57785;43.898;1.886;2022-07-29T21:24:22;4.20;;;1.90;;
70363;SDS011;57785;43.898;1.886;2022-07-29T21:26:48;5.10;;;2.00;;
70363;SDS011;57785;43.898;1.886;2022-07-29T21:29:14;4.40;;;1.90;;
70363;SDS011;57785;43.898;1.886;2022-07-29T21:31:40;6.13;;;2.03;;
70363;SDS011;57785;43.898;1.886;2022-07-29T21:34:06;3.38;;;1.90;;
70363;SDS011;57785;43.898;1.886;2022-07-29T21:36:33;4.65;;;2.00;;
70363;SDS011;57785;43.898;1.886;2022-07-29T21:38:59;4.32;;;1.98;;
70363;SDS011;57785;43.898;1.886;2022-07-29T21:41:30;5.45;;;2.22;;
70363;SDS011;57785;43.898;1.886;2022-07-29T21:43:56;4.38;;;1.92;;
70363;SDS011;57785;43.898;1.886;2022-07-29T21:46:23;4.90;;;1.98;;
70363;SDS011;57785;43.898;1.886;2022-07-29T21:48:49;4.35;;;1.92;;
70363;SDS011;57785;43.898;1.886;2022-07-29T21:51:15;7.93;;;2.38;;
70363;SDS011;57785;43.898;1.886;2022-07-29T21:53:41;5.40;;;2.20;;
70363;SDS011;57785;43.898;1.886;2022-07-29T21:56:07;4.32;;;2.10;;
70363;SDS011;57785;43.898;1.886;2022-07-29T21:58:33;4.65;;;2.30;;
70363;SDS011;57785;43.898;1.886;2022-07-29T22:00:59;3.60;;;1.90;;
70363;SDS011;57785;43.898;1.886;2022-07-29T22:03:25;4.50;;;2.30;;
70363;SDS011;57785;43.898;1.886;2022-07-29T22:05:51;3.22;;;1.90;;
70363;SDS011;57785;43.898;1.886;2022-07-29T22:08:17;2.78;;;1.95;;
70363;SDS011;57785;43.898;1.886;2022-07-29T22:10:43;3.38;;;1.80;;
70363;SDS011;57785;43.898;1.886;2022-07-29T22:13:09;3.70;;;1.90;;
70363;SDS011;57785;43.898;1.886;2022-07-29T22:15:35;2.13;;;1.90;;
70363;SDS011;57785;43.898;1.886;2022-07-29T22:18:01;2.88;;;2.10;;
70363;SDS011;57785;43.898;1.886;2022-07-29T22:20:27;3.28;;;1.80;;
70363;SDS011;57785;43.898;1.886;2022-07-29T22:22:53;4.47;;;2.40;;
70363;SDS011;57785;43.898;1.886;2022-07-29T22:25:20;3.83;;;2.20;;
70363;SDS011;57785;43.898;1.886;2022-07-29T22:27:47;4.18;;;2.20;;
70363;SDS011;57785;43.898;1.886;2022-07-29T22:30:13;3.50;;;2.20;;
70363;SDS011;57785;43.898;1.886;2022-07-29T22:32:39;3.35;;;2.10;;
70363;SDS011;57785;43.898;1.886;2022-07-29T22:35:06;4.43;;;2.15;;
70363;SDS011;57785;43.898;1.886;2022-07-29T22:37:32;2.67;;;1.80;;
70363;SDS011;57785;43.898;1.886;2022-07-29T22:39:58;5.10;;;2.00;;
70363;SDS011;57785;43.898;1.886;2022-07-29T22:42:24;4.78;;;1.92;;
70363;SDS011;57785;43.898;1.886;2022-07-29T22:44:50;5.30;;;2.10;;
70363;SDS011;57785;43.898;1.886;2022-07-29T22:47:16;8.40;;;2.00;;
70363;SDS011;57785;43.898;1.886;2022-07-29T22:49:42;3.63;;;2.10;;
70363;SDS011;57785;43.898;1.886;2022-07-29T22:52:09;4.30;;;2.13;;
70363;SDS011;57785;43.898;1.886;2022-07-29T22:54:35;3.88;;;2.00;;
70363;SDS011;57785;43.898;1.886;2022-07-29T22:57:02;5.07;;;2.20;;
70363;SDS011;57785;43.898;1.886;2022-07-29T22:59:28;2.85;;;2.10;;
